Terminal Aerodrome Forecast
Issued by NWS Tuscon, AZ

Home | Current Version | Previous Version | Text Only | Print | Product List | Glossary On
Versions: 1 2 3 4 5 6 7 8 9 10 11 12 13 14 15 16
896
FTUS45 KTWC 271741
TAFDUG
TAF
KDUG 271741Z 2718/2818 10011KT P6SM VCSH SCT040 BKN080
     FM280200 10007KT P6SM SCT060 BKN110=

USA.gov is the U.S. government's official web portal to all federal, state and local government web resources and services.